Koeln, Germany

4:45 PM CEST on August 23, 2014 (GMT +0200)
Lind | Change Station
CLOSE
Current Station
Personal Weather Station
Location: Koeln, NRW
Elevation: 177 ft
Nearby Weather Stations

Elev 177 ft 50.85 °N, 7.10 °E | Updated 15 seconds ago

Overcast
Overcast
58.4 °F
Feels Like 58.4 °F
N
6.0
Wind Variable Wind from WNW
Gusts 8.0 mph

Today
High -- | Low -- °F
--% Chance of Precip.
Yesterday
High -- | Low -- °F
Precip. -- in
6:30 AM 8:36 PM
Waning Crescent, 4% visible
Pressure 29.92 in
Visibility 6.2 miles
Clouds Few 3500 ft
Mostly Cloudy 4000 ft
Mostly Cloudy 9000 ft
Dew Point 47 °F
Humidity 66%
Rainfall 0.00 in
Snow Depth Not available.
UV 0.0 out of 12
Pollen Not available.
Air Quality Not available.
Flu Activity Not available.
METAR EDDK 231420Z 32011KT 9999 -SHRA FEW035 BKN040CB BKN090 15/09 Q1013 TEMPO 29015G25KT SHRA

More Conditions Fewer Conditions

Pressure 29.92 in
Visibility 6.2 miles
Clouds Few 3500 ft
Mostly Cloudy 4000 ft
Mostly Cloudy 9000 ft
Dew Point 47 °F
Humidity 66%
Rainfall 0.00 in
Snow Depth Not available.
UV 0.0 out of 12
Pollen Not available.
Air Quality Not available.
Flu Activity Not available.
METAR EDDK 231420Z 32011KT 9999 -SHRA FEW035 BKN040CB BKN090 15/09 Q1013 TEMPO 29015G25KT SHRA

More Conditions Fewer Conditions

10-Day Weather Forecast

Almanac

Astronomy

Aug. 23, 2014 Rise Set
Actual Time 6:30 AM CEST 8:36 PM CEST
Civil Twilight 5:55 AM CEST 9:11 PM CEST
Nautical Twilight 5:10 AM CEST 9:55 PM CEST
Astronomical Twilight 4:19 AM CEST 10:46 PM CEST
Moon 4:26 AM CEST 7:13 PM CEST
Length of Visible Light 15h 16m
Length of Day
14h 05m
Tomorrow will be 3m 38s shorter.
Waning Crescent, 4% of the Moon is Illuminated
Today
Waning Crescent
Aug 25
New
Sep 2
First Quarter
Sep 8
Full
Sep 15
Last Quarter

Yesterday's Extremes

Country Highs Country Lows

Community

WunderPhotos

Upload Photos

1,746,477 photos uploaded!

WunderBlogs® & News

By Dr. Jeff Masters
Director of Meteorology, Weather Underground
By Kari Strenfel
Meteorologist, Weather Underground
By Christopher C. Burt
Weather Historian, Weather Underground
August 23, 2014
August 23, 2014
August 23, 2014

Nearby

Snow Depth

Not available.

Earthquake Activity

City Distance Mag. Time & Date
No recent earthquake activity has been reported nearby.
Minimum magnitude displayed is 2.5.

Coastal Water Temperatures

Place Temperature
No Stations Reporting

Nearby Weather Stations